createdAt,value
2018-03-07T00:02:17.197Z,10.67
2018-03-07T00:04:55.428Z,11.20
2018-03-07T00:07:25.874Z,10.30
2018-03-07T00:10:12.623Z,10.90
2018-03-07T00:12:43.710Z,10.03
2018-03-07T00:15:36.617Z,10.93
2018-03-07T00:18:04.138Z,11.67
2018-03-07T00:20:31.698Z,10.63
2018-03-07T00:22:59.230Z,11.90
2018-03-07T00:25:31.964Z,11.37
2018-03-07T00:28:13.077Z,10.47
2018-03-07T00:30:40.605Z,11.67
2018-03-07T00:33:13.954Z,10.93
2018-03-07T00:35:49.502Z,11.43
2018-03-07T00:38:42.709Z,10.40
2018-03-07T00:41:13.816Z,10.80
2018-03-07T00:46:43.406Z,11.67
2018-03-07T00:49:10.921Z,11.07
2018-03-07T00:51:38.460Z,11.10
2018-03-07T00:54:19.484Z,12.00
2018-03-07T00:56:47.035Z,10.60
2018-03-07T00:59:19.884Z,11.30
2018-03-07T01:01:55.598Z,12.10
2018-03-07T01:04:23.118Z,11.70
2018-03-07T01:09:49.742Z,10.70
2018-03-07T01:15:10.765Z,11.50
2018-03-07T01:17:53.498Z,12.43
2018-03-07T01:20:21.222Z,11.03
2018-03-07T01:22:49.903Z,12.20
2018-03-07T01:25:17.420Z,11.93
2018-03-07T01:27:44.938Z,12.20
2018-03-07T01:30:19.701Z,12.00
2018-03-07T01:32:47.222Z,11.70
2018-03-07T01:35:25.483Z,12.87
2018-03-07T01:37:55.929Z,12.07
2018-03-07T01:40:26.055Z,12.27
2018-03-07T01:43:13.102Z,12.30
2018-03-07T01:45:55.154Z,12.40
2018-03-07T01:48:42.746Z,12.67
2018-03-07T01:54:07.936Z,12.57
2018-03-07T01:59:32.105Z,11.80
2018-03-07T02:04:53.612Z,12.00
2018-03-07T02:07:37.251Z,12.20
2018-03-07T02:10:19.095Z,13.10
2018-03-07T02:12:50.274Z,12.87
2018-03-07T02:15:19.952Z,13.17
2018-03-07T02:18:12.634Z,14.17
2018-03-07T02:20:40.174Z,12.93
2018-03-07T02:26:19.126Z,12.70
2018-03-07T02:28:46.682Z,13.30
2018-03-07T02:31:14.224Z,12.60
2018-03-07T02:33:41.775Z,13.10
2018-03-07T02:36:25.622Z,13.87
2018-03-07T02:38:55.923Z,11.93
2018-03-07T02:44:19.915Z,13.67
2018-03-07T02:46:55.653Z,13.07
2018-03-07T02:49:25.880Z,13.70
2018-03-07T02:52:07.219Z,13.80
2018-03-07T02:57:27.386Z,14.10
2018-03-07T03:00:01.463Z,13.40
2018-03-07T03:02:29.002Z,14.10
2018-03-07T03:04:56.524Z,14.00
2018-03-07T03:07:43.151Z,14.27
2018-03-07T03:13:07.798Z,13.07
2018-03-07T03:15:35.491Z,14.07
2018-03-07T03:18:03.027Z,14.77
2018-03-07T03:20:30.956Z,14.40
2018-03-07T03:23:13.146Z,13.10
2018-03-07T03:25:49.746Z,15.20
2018-03-07T03:28:17.264Z,13.27
2018-03-07T03:31:01.330Z,13.87
2018-03-07T03:33:28.854Z,14.30
2018-03-07T03:35:56.374Z,14.60
2018-03-07T03:38:25.986Z,15.37
2018-03-07T03:40:53.496Z,14.83
2018-03-07T03:46:14.547Z,14.97
2018-03-07T03:48:49.677Z,15.00
2018-03-07T03:51:19.946Z,14.57
2018-03-07T03:56:49.550Z,14.83
2018-03-07T03:59:19.986Z,14.47
2018-03-07T04:01:49.914Z,15.40
2018-03-07T04:04:17.826Z,15.60
2018-03-07T04:06:45.353Z,15.20
2018-03-07T04:09:31.249Z,16.40
2018-03-07T04:11:58.778Z,15.87
2018-03-07T04:14:37.562Z,14.80
2018-03-07T04:17:07.926Z,15.50
2018-03-07T04:19:35.462Z,15.93
2018-03-07T04:22:02.986Z,16.20
2018-03-07T04:27:25.843Z,15.87
2018-03-07T04:29:56.211Z,16.23
2018-03-07T04:32:31.678Z,16.63
2018-03-07T04:34:59.526Z,15.60
2018-03-07T04:37:27.448Z,14.50
2018-03-07T04:43:12.727Z,16.00
2018-03-07T04:45:44.029Z,16.03
2018-03-07T04:48:25.550Z,14.97
2018-03-07T04:50:53.285Z,13.40
2018-03-07T04:53:37.491Z,15.80
2018-03-07T04:56:05.016Z,15.13
2018-03-07T04:58:43.563Z,16.93
2018-03-07T05:01:11.135Z,15.03
2018-03-07T05:03:38.650Z,15.03
2018-03-07T05:06:19.366Z,15.00
2018-03-07T05:09:01.173Z,15.37
2018-03-07T05:11:32.039Z,16.73
2018-03-07T05:13:59.587Z,15.07
2018-03-07T05:16:43.373Z,15.60
2018-03-07T05:19:25.389Z,15.43
2018-03-07T05:22:07.170Z,14.77
2018-03-07T05:24:34.690Z,15.50
2018-03-07T05:27:19.189Z,15.30
2018-03-07T05:29:46.709Z,16.10
2018-03-07T05:32:14.228Z,16.13
2018-03-07T05:34:44.132Z,15.30
2018-03-07T05:37:11.651Z,15.10
2018-03-07T05:39:49.701Z,16.27
2018-03-07T05:42:19.877Z,15.53
2018-03-07T05:44:55.564Z,15.60
2018-03-07T05:47:31.607Z,16.80
2018-03-07T05:50:13.262Z,16.87
2018-03-07T05:52:49.694Z,17.17
2018-03-07T05:55:17.618Z,16.13
2018-03-07T05:58:01.210Z,16.77
2018-03-07T06:00:28.738Z,16.37
2018-03-07T06:03:18.780Z,16.80
2018-03-07T06:05:50.058Z,17.50
2018-03-07T06:08:17.575Z,18.00
2018-03-07T06:10:45.095Z,16.87
2018-03-07T06:13:13.010Z,16.37
2018-03-07T06:18:33.314Z,17.70
2018-03-07T06:21:00.888Z,17.43
2018-03-07T06:26:21.564Z,17.83
2018-03-07T06:29:01.808Z,17.90
2018-03-07T06:31:49.367Z,18.20
2018-03-07T06:34:31.344Z,17.10
2018-03-07T06:37:24.730Z,19.17
2018-03-07T06:39:52.259Z,18.60
2018-03-07T06:42:19.786Z,18.20
2018-03-07T06:44:49.911Z,18.97
2018-03-07T06:47:42.822Z,19.27
2018-03-07T06:50:14.106Z,19.90
2018-03-07T06:52:41.637Z,19.80
2018-03-07T06:55:25.354Z,18.93
2018-03-07T06:58:01.791Z,19.23
2018-03-07T07:00:32.008Z,19.40
2018-03-07T07:06:07.408Z,18.30
2018-03-07T07:11:32.086Z,19.00
2018-03-07T07:14:02.189Z,18.60
2018-03-07T07:16:49.467Z,18.33
2018-03-07T07:19:20.030Z,19.43
2018-03-07T07:22:12.931Z,19.33
2018-03-07T07:24:40.452Z,20.30
2018-03-07T07:30:24.869Z,18.60
2018-03-07T07:32:55.978Z,18.30
2018-03-07T07:35:37.296Z,20.13
2018-03-07T07:38:04.910Z,19.63
2018-03-07T07:40:37.986Z,19.43
2018-03-07T07:43:07.944Z,18.90
2018-03-07T07:45:35.450Z,18.60
2018-03-07T07:48:02.973Z,19.37
2018-03-07T07:50:30.495Z,19.13
2018-03-07T07:53:13.658Z,19.97
2018-03-07T07:55:41.169Z,19.60
2018-03-07T07:58:25.366Z,19.77
2018-03-07T08:00:52.878Z,20.47
2018-03-07T08:03:26.299Z,19.60
2018-03-07T08:05:53.833Z,20.13
2018-03-07T08:08:21.391Z,19.70
2018-03-07T08:10:54.162Z,21.03
2018-03-07T08:13:25.927Z,19.30
2018-03-07T08:15:53.452Z,19.97
2018-03-07T08:18:42.990Z,19.73
2018-03-07T08:21:10.515Z,19.30
2018-03-07T08:23:49.827Z,20.30
2018-03-07T08:26:36.931Z,19.83
2018-03-07T08:29:19.448Z,20.80
2018-03-07T08:35:00.849Z,20.53
2018-03-07T08:37:32.014Z,20.60
2018-03-07T08:39:59.525Z,19.90
2018-03-07T08:42:27.055Z,21.37
2018-03-07T08:44:54.572Z,20.17
2018-03-07T08:50:15.778Z,20.30
2018-03-07T08:52:49.783Z,20.77
2018-03-07T08:55:17.318Z,20.23
2018-03-07T08:58:01.547Z,21.57
2018-03-07T09:00:37.810Z,21.27
2018-03-07T09:03:05.302Z,18.93
2018-03-07T09:05:33.021Z,19.77
2018-03-07T09:08:00.550Z,20.20
2018-03-07T09:10:43.430Z,18.30
2018-03-07T09:13:10.953Z,19.67
2018-03-07T09:24:17.172Z,18.83
2018-03-07T09:27:01.314Z,20.03
2018-03-07T09:32:42.866Z,20.67
2018-03-07T09:35:14.030Z,20.77
2018-03-07T09:37:41.562Z,20.10
2018-03-07T09:40:09.089Z,19.43
2018-03-07T09:42:36.633Z,20.30
2018-03-07T09:45:30.844Z,19.30
2018-03-07T09:48:02.094Z,18.93
2018-03-07T09:50:29.648Z,19.87
2018-03-07T09:55:50.953Z,18.40
2018-03-07T09:58:18.863Z,18.60
2018-03-07T10:00:46.381Z,18.30
2018-03-07T10:03:14.121Z,18.70
2018-03-07T10:05:41.647Z,17.93
2018-03-07T10:08:30.988Z,19.33
2018-03-07T10:10:58.520Z,18.43
2018-03-07T10:13:37.813Z,17.33
2018-03-07T10:16:13.706Z,17.30
2018-03-07T10:18:41.259Z,18.37
2018-03-07T10:24:19.573Z,17.00
2018-03-07T10:27:06.971Z,16.00
2018-03-07T10:29:34.538Z,15.80
2018-03-07T10:32:08.176Z,17.57
2018-03-07T10:34:36.223Z,16.07
2018-03-07T10:37:08.038Z,16.67
2018-03-07T10:39:43.714Z,16.97
2018-03-07T10:42:11.254Z,16.10
2018-03-07T10:44:49.939Z,15.27
2018-03-07T10:47:25.689Z,15.37
2018-03-07T10:49:56.198Z,14.90
2018-03-07T10:55:25.794Z,13.37
2018-03-07T10:57:56.058Z,14.17
2018-03-07T11:00:48.940Z,14.70
2018-03-07T11:03:20.247Z,14.87
2018-03-07T11:05:47.771Z,14.53
2018-03-07T11:08:15.314Z,15.00
2018-03-07T11:10:44.147Z,14.30
2018-03-07T11:13:14.062Z,14.90
2018-03-07T11:15:49.743Z,13.87
2018-03-07T11:18:20.139Z,13.83
2018-03-07T11:21:01.459Z,14.33
2018-03-07T11:23:32.250Z,12.33
2018-03-07T11:26:02.063Z,11.43
2018-03-07T11:31:31.886Z,12.30
2018-03-07T11:34:02.215Z,11.63
2018-03-07T11:36:34.002Z,11.40
2018-03-07T11:39:13.721Z,10.73
2018-03-07T11:41:41.303Z,11.40
2018-03-07T11:44:19.766Z,11.67
2018-03-07T11:46:47.391Z,11.73
2018-03-07T11:49:31.395Z,11.63
2018-03-07T11:52:07.935Z,10.37
2018-03-07T11:54:38.171Z,11.03
2018-03-07T11:57:13.759Z,9.80
2018-03-07T11:59:55.452Z,10.43
2018-03-07T12:05:31.475Z,9.70
2018-03-07T12:08:02.227Z,10.53
2018-03-07T12:10:32.082Z,10.03
2018-03-07T12:13:25.043Z,9.80
2018-03-07T12:16:07.559Z,9.87
2018-03-07T12:18:35.075Z,9.20
2018-03-07T12:21:08.300Z,8.90
2018-03-07T12:23:43.743Z,9.67
2018-03-07T12:29:08.090Z,9.33
2018-03-07T12:31:55.598Z,9.10
2018-03-07T12:34:23.123Z,7.57
2018-03-07T12:37:07.414Z,8.30
2018-03-07T12:39:34.935Z,8.40
2018-03-07T12:42:25.038Z,8.33
2018-03-07T12:48:01.592Z,9.13
2018-03-07T12:50:49.060Z,8.17
2018-03-07T12:53:20.121Z,9.00
2018-03-07T12:55:47.778Z,8.40
2018-03-07T13:01:14.230Z,8.53
2018-03-07T13:04:07.135Z,7.57
2018-03-07T13:06:55.275Z,8.00
2018-03-07T13:09:22.791Z,7.77
2018-03-07T13:12:01.915Z,7.70
2018-03-07T13:14:43.552Z,8.53
2018-03-07T13:17:11.147Z,7.40
2018-03-07T13:19:44.238Z,7.83
2018-03-07T13:22:25.484Z,7.33
2018-03-07T13:25:07.586Z,7.30
2018-03-07T13:30:28.908Z,6.83
2018-03-07T13:33:07.981Z,7.00
2018-03-07T13:35:55.593Z,7.07
2018-03-07T13:38:26.188Z,7.10
2018-03-07T13:43:46.450Z,6.33
2018-03-07T13:46:14.186Z,7.10
2018-03-07T13:48:41.713Z,6.67
2018-03-07T13:51:09.230Z,6.20
2018-03-07T13:53:36.757Z,6.47
2018-03-07T13:56:04.273Z,5.90
2018-03-07T13:58:31.791Z,6.00
2018-03-07T14:01:13.462Z,5.90
2018-03-07T14:06:34.327Z,5.67
2018-03-07T14:09:24.966Z,5.40
2018-03-07T14:12:01.862Z,5.43
2018-03-07T14:14:32.129Z,5.67
2018-03-07T14:17:19.466Z,5.80
2018-03-07T14:19:46.983Z,5.10
2018-03-07T14:22:14.514Z,5.20
2018-03-07T14:24:44.247Z,5.07
2018-03-07T14:30:08.470Z,4.80
2018-03-07T14:38:37.857Z,4.90
2018-03-07T14:41:08.354Z,4.60
2018-03-07T14:43:44.080Z,4.50
2018-03-07T14:46:12.035Z,5.20
2018-03-07T14:48:50.091Z,4.93
2018-03-07T14:51:17.804Z,4.73
2018-03-07T14:53:56.212Z,5.07
2018-03-07T14:56:23.723Z,5.00
2018-03-07T14:58:51.294Z,5.10
2018-03-07T15:01:18.810Z,4.70
2018-03-07T15:03:49.172Z,4.67
2018-03-07T15:06:20.375Z,4.70
2018-03-07T15:09:07.498Z,5.07
2018-03-07T15:11:44.042Z,4.40
2018-03-07T15:14:19.890Z,3.97
2018-03-07T15:16:50.311Z,4.93
2018-03-07T15:19:17.906Z,4.90
2018-03-07T15:24:44.181Z,4.67
2018-03-07T15:27:14.342Z,4.63
2018-03-07T15:35:27.103Z,4.20
2018-03-07T15:37:55.025Z,4.53
2018-03-07T15:40:22.554Z,4.30
2018-03-07T15:42:50.274Z,4.80
2018-03-07T15:45:17.806Z,4.53
2018-03-07T15:47:45.322Z,4.53
2018-03-07T15:50:12.856Z,4.57
2018-03-07T15:52:55.519Z,4.17
2018-03-07T15:55:23.046Z,4.37
2018-03-07T16:00:44.220Z,4.07
2018-03-07T16:03:11.750Z,3.50
2018-03-07T16:05:39.359Z,4.03
2018-03-07T16:08:19.676Z,3.83
2018-03-07T16:16:32.768Z,3.83
2018-03-07T16:19:02.386Z,3.43
2018-03-07T16:21:29.946Z,3.30
2018-03-07T16:23:57.467Z,3.30
2018-03-07T16:26:26.397Z,3.20
2018-03-07T16:28:53.920Z,3.03
2018-03-07T16:31:32.075Z,3.90
2018-03-07T16:34:08.120Z,3.30
2018-03-07T16:36:35.695Z,4.00
2018-03-07T16:39:08.460Z,3.13
2018-03-07T16:41:35.967Z,3.37
2018-03-07T16:44:03.480Z,3.37
2018-03-07T16:46:37.870Z,3.30
2018-03-07T16:49:05.394Z,3.37
2018-03-07T16:51:32.907Z,3.30
2018-03-07T16:54:07.871Z,3.37
2018-03-07T16:56:38.330Z,3.60
2018-03-07T16:59:05.899Z,3.10
2018-03-07T17:01:33.411Z,3.60
2018-03-07T17:04:08.130Z,3.53
2018-03-07T17:06:43.966Z,3.43
2018-03-07T17:09:20.015Z,3.20
2018-03-07T17:11:47.575Z,3.40
2018-03-07T17:14:25.976Z,3.40
2018-03-07T17:19:55.899Z,3.20
2018-03-07T17:22:43.188Z,3.60
2018-03-07T17:25:31.047Z,4.00
2018-03-07T17:28:02.425Z,3.47
2018-03-07T17:30:43.795Z,3.63
2018-03-07T17:33:11.309Z,3.53
2018-03-07T17:35:50.056Z,3.43
2018-03-07T17:38:17.570Z,3.50
2018-03-07T17:40:56.023Z,3.13
2018-03-07T17:43:26.288Z,2.80
2018-03-07T17:45:54.157Z,3.13
2018-03-07T17:48:43.079Z,3.60
2018-03-07T17:51:14.254Z,2.90
2018-03-07T17:53:50.004Z,3.57
2018-03-07T17:56:26.082Z,3.40
2018-03-07T17:58:53.975Z,3.10
2018-03-07T18:01:21.554Z,3.00
2018-03-07T18:03:50.363Z,2.53
2018-03-07T18:06:26.088Z,3.30
2018-03-07T18:08:56.554Z,2.90
2018-03-07T18:11:37.171Z,2.80
2018-03-07T18:14:05.087Z,3.17
2018-03-07T18:16:38.372Z,3.20
2018-03-07T18:25:13.304Z,2.53
2018-03-07T18:27:40.823Z,2.47
2018-03-07T18:33:02.323Z,2.80
2018-03-07T18:35:49.593Z,2.87
2018-03-07T18:38:17.146Z,2.67
2018-03-07T18:40:44.665Z,2.80
2018-03-07T18:43:20.019Z,2.23
2018-03-07T18:45:47.945Z,2.53
2018-03-07T18:48:31.756Z,2.33
2018-03-07T18:51:19.201Z,2.47
2018-03-07T18:54:01.608Z,2.90
2018-03-07T18:56:55.105Z,2.33
2018-03-07T18:59:37.730Z,3.00
2018-03-07T19:02:08.384Z,2.50
2018-03-07T19:04:49.737Z,2.27
2018-03-07T19:07:17.277Z,2.30
2018-03-07T19:09:50.581Z,2.17
2018-03-07T19:12:26.121Z,2.50
2018-03-07T19:17:46.180Z,2.30
2018-03-07T19:26:00.517Z,2.23
2018-03-07T19:28:28.034Z,2.10
2018-03-07T19:31:07.994Z,2.07
2018-03-07T19:33:38.311Z,1.90
2018-03-07T19:36:13.959Z,1.90
2018-03-07T19:38:41.800Z,2.13
2018-03-07T19:41:14.340Z,1.97
2018-03-07T19:43:41.863Z,1.60
2018-03-07T19:49:02.577Z,2.07
2018-03-07T19:51:43.834Z,2.10
2018-03-07T19:57:04.458Z,1.97
2018-03-07T19:59:31.982Z,2.20
2018-03-07T20:01:59.894Z,2.23
2018-03-07T20:04:38.102Z,1.90
2018-03-07T20:07:19.750Z,2.20
2018-03-07T20:09:50.560Z,2.37
2018-03-07T20:12:18.082Z,2.27
2018-03-07T20:14:45.604Z,2.10
2018-03-07T20:17:13.133Z,2.20
2018-03-07T20:19:40.650Z,2.40
2018-03-07T20:22:08.454Z,2.13
2018-03-07T20:24:38.391Z,2.30
2018-03-07T20:27:08.489Z,2.50
2018-03-07T20:29:36.026Z,2.27
2018-03-07T20:35:08.006Z,2.07
2018-03-07T20:37:38.487Z,2.50
2018-03-07T20:40:08.392Z,1.77
2018-03-07T20:42:44.031Z,2.67
2018-03-07T20:45:14.400Z,1.83
2018-03-07T20:47:55.907Z,2.80
2018-03-07T20:50:23.495Z,2.33
2018-03-07T20:52:51.495Z,2.70
2018-03-07T20:55:19.001Z,2.53
2018-03-07T20:57:46.514Z,2.37
2018-03-07T21:00:26.201Z,2.80
2018-03-07T21:02:53.716Z,2.17
2018-03-07T21:05:26.582Z,2.60
2018-03-07T21:08:07.862Z,2.40
2018-03-07T21:13:32.475Z,2.57
2018-03-07T21:16:19.291Z,2.60
2018-03-07T21:18:46.806Z,2.70
2018-03-07T21:24:08.600Z,2.87
2018-03-07T21:26:36.318Z,2.47
2018-03-07T21:29:08.700Z,2.87
2018-03-07T21:31:38.717Z,2.57
2018-03-07T21:34:31.191Z,3.00
2018-03-07T21:37:02.456Z,2.67
2018-03-07T21:39:29.962Z,2.53
2018-03-07T21:42:02.436Z,2.77
2018-03-07T21:44:38.133Z,2.87
2018-03-07T21:47:05.646Z,3.07
2018-03-07T21:49:33.183Z,2.70
2018-03-07T21:52:00.731Z,3.00
2018-03-07T21:54:28.244Z,2.77
2018-03-07T21:56:55.757Z,3.20
2018-03-07T21:59:23.665Z,3.37
2018-03-07T22:01:51.179Z,3.10
2018-03-07T22:04:19.099Z,2.97
2018-03-07T22:06:50.501Z,3.37
2018-03-07T22:09:26.043Z,3.87
2018-03-07T22:12:13.866Z,3.60
2018-03-07T22:17:34.419Z,3.50
2018-03-07T22:20:14.066Z,3.87
2018-03-07T22:22:44.444Z,3.90
2018-03-07T22:25:37.368Z,4.03
2018-03-07T22:28:08.378Z,4.07
2018-03-07T22:33:49.320Z,3.93
2018-03-07T22:36:20.491Z,4.10
2018-03-07T22:38:48.416Z,4.10
2018-03-07T22:41:15.933Z,4.40
2018-03-07T22:46:38.478Z,5.37
2018-03-07T22:49:31.216Z,5.23
2018-03-07T22:54:52.423Z,5.53
2018-03-07T23:00:25.199Z,6.17
2018-03-07T23:05:50.450Z,5.80
2018-03-07T23:11:10.833Z,6.77
2018-03-07T23:13:38.364Z,6.07
2018-03-07T23:16:08.569Z,6.33
2018-03-07T23:21:32.564Z,6.60
2018-03-07T23:26:53.203Z,7.33
2018-03-07T23:29:20.728Z,8.17
2018-03-07T23:32:07.828Z,7.57
2018-03-07T23:34:49.759Z,7.90
2018-03-07T23:37:32.063Z,7.80
2018-03-07T23:40:13.744Z,7.30
2018-03-07T23:42:55.752Z,8.77
2018-03-07T23:45:32.088Z,7.93
2018-03-07T23:48:02.619Z,9.00
2018-03-07T23:50:30.267Z,7.80
2018-03-07T23:53:19.304Z,8.23
2018-03-07T23:55:46.802Z,7.33
2018-03-07T23:58:26.163Z,8.23
